createdAt,value
2023-04-15T00:00:01.350Z,7.1498
2023-04-15T00:01:03.039Z,7.1422
2023-04-15T00:02:04.708Z,7.1362
2023-04-15T00:03:06.476Z,7.1274
2023-04-15T00:04:08.056Z,7.1286
2023-04-15T00:05:09.624Z,7.1194
2023-04-15T00:06:11.324Z,7.1099
2023-04-15T00:07:12.966Z,7.0967
2023-04-15T00:08:14.572Z,7.0867
2023-04-15T00:09:16.254Z,7.0742
2023-04-15T00:10:17.894Z,7.0693
2023-04-15T00:11:19.585Z,7.0683
2023-04-15T00:12:21.189Z,7.0648
2023-04-15T00:13:22.825Z,7.0534
2023-04-15T00:14:24.526Z,7.0434
2023-04-15T00:15:26.099Z,7.0377
2023-04-15T00:16:27.840Z,7.0330
2023-04-15T00:17:29.503Z,7.0341
2023-04-15T00:18:31.083Z,7.0320
2023-04-15T00:19:32.809Z,7.0263
2023-04-15T00:20:34.402Z,7.0195
2023-04-15T00:21:36.083Z,7.0174
2023-04-15T00:22:37.746Z,7.0209
2023-04-15T00:23:39.387Z,7.0218
2023-04-15T00:24:41.004Z,7.0272
2023-04-15T00:25:42.662Z,7.0281
2023-04-15T00:26:44.401Z,7.0261
2023-04-15T00:27:45.962Z,7.0266
2023-04-15T00:28:47.651Z,7.0239
2023-04-15T00:29:49.363Z,7.0207
2023-04-15T00:30:51.058Z,7.0177
2023-04-15T00:31:52.704Z,7.0137
2023-04-15T00:32:54.391Z,7.0071
2023-04-15T00:33:55.965Z,7.0040
2023-04-15T00:34:57.712Z,7.0059
2023-04-15T00:35:59.329Z,7.0154
2023-04-15T00:37:00.980Z,7.0266
2023-04-15T00:38:02.663Z,7.0356
2023-04-15T00:39:04.240Z,7.0396
2023-04-15T00:40:05.969Z,7.0504
2023-04-15T00:41:07.590Z,7.0548
2023-04-15T00:42:09.288Z,7.0565
2023-04-15T00:43:10.907Z,7.0614
2023-04-15T00:44:12.553Z,7.0693
2023-04-15T00:45:14.220Z,7.0723
2023-04-15T00:46:15.907Z,7.0718
2023-04-15T00:47:17.565Z,7.0768
2023-04-15T00:48:19.153Z,7.0891
2023-04-15T00:49:20.794Z,7.1046
2023-04-15T00:50:22.417Z,7.1226
2023-04-15T00:51:24.109Z,7.1397
2023-04-15T00:52:25.778Z,7.1506
2023-04-15T00:53:27.449Z,7.1634
2023-04-15T00:54:29.081Z,7.1785
2023-04-15T00:55:30.688Z,7.1880
2023-04-15T00:56:32.350Z,7.1966
2023-04-15T00:57:34.080Z,7.2075
2023-04-15T00:58:35.591Z,7.2217
2023-04-15T00:59:37.213Z,7.2294
2023-04-15T01:00:38.877Z,7.2369
2023-04-15T01:01:40.571Z,7.2436
2023-04-15T01:02:42.322Z,7.2508
2023-04-15T01:03:44.027Z,7.2607
2023-04-15T01:04:45.471Z,7.2697
2023-04-15T01:05:47.132Z,7.2891
2023-04-15T01:06:48.831Z,7.3111
2023-04-15T01:07:50.488Z,7.3281
2023-04-15T01:08:52.108Z,7.3382
2023-04-15T01:09:53.778Z,7.3424
2023-04-15T01:10:55.426Z,7.3475
2023-04-15T01:11:57.088Z,7.3552
2023-04-15T01:12:58.780Z,7.3689
2023-04-15T01:14:00.427Z,7.3772
2023-04-15T01:15:02.048Z,7.3823
2023-04-15T01:16:03.772Z,7.3886
2023-04-15T01:17:05.389Z,7.3973
2023-04-15T01:18:07.059Z,7.4123
2023-04-15T01:19:08.662Z,7.4270
2023-04-15T01:20:10.330Z,7.4444
2023-04-15T01:21:12.030Z,7.4602
2023-04-15T01:22:13.626Z,7.4745
2023-04-15T01:23:15.291Z,7.4832
2023-04-15T01:24:16.969Z,7.4961
2023-04-15T01:25:18.669Z,7.5082
2023-04-15T01:26:20.273Z,7.5255
2023-04-15T01:27:21.926Z,7.5431
2023-04-15T01:28:23.593Z,7.5603
2023-04-15T01:29:25.228Z,7.5737
2023-04-15T01:30:26.870Z,7.5831
2023-04-15T01:31:28.602Z,7.5877
2023-04-15T01:32:30.206Z,7.5941
2023-04-15T01:33:31.985Z,7.5985
2023-04-15T01:34:35.632Z,7.6052
2023-04-15T01:35:35.262Z,7.6132
2023-04-15T01:36:36.888Z,7.6238
2023-04-15T01:37:38.470Z,7.6313
2023-04-15T01:38:40.129Z,7.6387
2023-04-15T01:39:41.744Z,7.6514
2023-04-15T01:40:43.421Z,7.6623
2023-04-15T01:41:45.063Z,7.6777
2023-04-15T01:42:46.715Z,7.6901
2023-04-15T01:43:48.406Z,7.7050
2023-04-15T01:44:50.027Z,7.7208
2023-04-15T01:45:51.710Z,7.7365
2023-04-15T01:46:53.423Z,7.7519
2023-04-15T01:47:55.014Z,7.7723
2023-04-15T01:48:56.733Z,7.7846
2023-04-15T01:49:58.311Z,7.7851
2023-04-15T01:50:59.928Z,7.7801
2023-04-15T01:52:01.695Z,7.7607
2023-04-15T01:53:03.236Z,7.7345
2023-04-15T01:54:04.985Z,7.7053
2023-04-15T01:55:06.590Z,7.6958
2023-04-15T01:56:08.190Z,7.6894
2023-04-15T01:57:09.883Z,7.6875
2023-04-15T01:58:11.491Z,7.6909
2023-04-15T01:59:13.198Z,7.6943
2023-04-15T02:00:14.810Z,7.6924
2023-04-15T02:01:16.499Z,7.6938
2023-04-15T02:02:18.136Z,7.6996
2023-04-15T02:03:19.904Z,7.7026
2023-04-15T02:04:21.453Z,7.7079
2023-04-15T02:05:23.061Z,7.7144
2023-04-15T02:06:24.712Z,7.7229
2023-04-15T02:07:26.371Z,7.7349
2023-04-15T02:08:28.032Z,7.7477
2023-04-15T02:09:29.695Z,7.7557
2023-04-15T02:10:31.298Z,7.7607
2023-04-15T02:11:32.976Z,7.7641
2023-04-15T02:12:34.616Z,7.7705
2023-04-15T02:13:36.320Z,7.7786
2023-04-15T02:14:37.982Z,7.7897
2023-04-15T02:15:39.581Z,7.7973
2023-04-15T02:16:41.321Z,7.8036
2023-04-15T02:17:42.946Z,7.8062
2023-04-15T02:18:44.581Z,7.8065
2023-04-15T02:19:46.221Z,7.8078
2023-04-15T02:20:47.847Z,7.8110
2023-04-15T02:21:49.504Z,7.8164
2023-04-15T02:22:51.156Z,7.8264
2023-04-15T02:23:54.011Z,7.8349
2023-04-15T02:24:54.530Z,7.8395
2023-04-15T02:25:56.120Z,7.8443
2023-04-15T02:26:57.774Z,7.8474
2023-04-15T02:28:00.400Z,7.8509
2023-04-15T02:29:01.274Z,7.8515
2023-04-15T02:30:02.859Z,7.8560
2023-04-15T02:31:04.469Z,7.8588
2023-04-15T02:32:06.275Z,7.8635
2023-04-15T02:33:07.782Z,7.8621
2023-04-15T02:34:09.477Z,7.8528
2023-04-15T02:35:11.139Z,7.8347
2023-04-15T02:36:12.780Z,7.8187
2023-04-15T02:37:14.429Z,7.8159
2023-04-15T02:38:16.083Z,7.8081
2023-04-15T02:39:17.717Z,7.8087
2023-04-15T02:40:19.297Z,7.8126
2023-04-15T02:41:20.934Z,7.8140
2023-04-15T02:42:22.621Z,7.8208
2023-04-15T02:43:24.261Z,7.8205
2023-04-15T02:44:25.935Z,7.8047
2023-04-15T02:45:27.628Z,7.7784
2023-04-15T02:46:29.337Z,7.7448
2023-04-15T02:47:30.943Z,7.7254
2023-04-15T02:48:32.557Z,7.7205
2023-04-15T02:49:34.180Z,7.7301
2023-04-15T02:50:35.878Z,7.7384
2023-04-15T02:51:37.454Z,7.7462
2023-04-15T02:52:39.116Z,7.7607
2023-04-15T02:53:40.790Z,7.7802
2023-04-15T02:54:42.426Z,7.7959
2023-04-15T02:55:44.133Z,7.8056
2023-04-15T02:56:45.715Z,7.8188
2023-04-15T02:57:47.378Z,7.8311
2023-04-15T02:58:49.076Z,7.8431
2023-04-15T02:59:50.688Z,7.8574
2023-04-15T03:00:52.389Z,7.8705
2023-04-15T03:01:54.156Z,7.8761
2023-04-15T03:02:55.769Z,7.8833
2023-04-15T03:03:57.443Z,7.8892
2023-04-15T03:04:58.935Z,7.8927
2023-04-15T03:06:00.631Z,7.8971
2023-04-15T03:07:02.246Z,7.9024
2023-04-15T03:08:03.924Z,7.9114
2023-04-15T03:09:05.548Z,7.9190
2023-04-15T03:10:07.208Z,7.9207
2023-04-15T03:11:08.891Z,7.9185
2023-04-15T03:12:10.493Z,7.9166
2023-04-15T03:13:12.098Z,7.9188
2023-04-15T03:14:13.763Z,7.9244
2023-04-15T03:15:15.537Z,7.9323
2023-04-15T03:16:17.263Z,7.9351
2023-04-15T03:17:18.792Z,7.9373
2023-04-15T03:18:20.589Z,7.9425
2023-04-15T03:19:22.073Z,7.9528
2023-04-15T03:20:23.808Z,7.9586
2023-04-15T03:21:25.483Z,7.9587
2023-04-15T03:22:27.052Z,7.9642
2023-04-15T03:23:28.737Z,7.9677
2023-04-15T03:24:30.369Z,7.9717
2023-04-15T03:25:32.111Z,7.9754
2023-04-15T03:26:33.739Z,7.9782
2023-04-15T03:27:35.372Z,7.9745
2023-04-15T03:28:36.971Z,7.9723
2023-04-15T03:29:38.622Z,7.9780
2023-04-15T03:30:40.353Z,7.9780
2023-04-15T03:31:42.032Z,7.9703
2023-04-15T03:32:43.563Z,7.9558
2023-04-15T03:33:45.215Z,7.9517
2023-04-15T03:34:46.891Z,7.9563
2023-04-15T03:35:48.491Z,7.9607
2023-04-15T03:36:50.234Z,7.9727
2023-04-15T03:37:51.771Z,7.9822
2023-04-15T03:38:53.414Z,7.9882
2023-04-15T03:39:55.107Z,7.9947
2023-04-15T03:40:56.711Z,8.0002
2023-04-15T03:41:58.428Z,8.0008
2023-04-15T03:43:00.130Z,7.9980
2023-04-15T03:44:01.574Z,7.9979
2023-04-15T03:45:03.275Z,7.9949
2023-04-15T03:46:04.951Z,7.9892
2023-04-15T03:47:06.633Z,7.9851
2023-04-15T03:48:17.060Z,7.9856
2023-04-15T03:49:09.862Z,7.9823
2023-04-15T03:50:11.494Z,7.9864
2023-04-15T03:51:13.114Z,7.9925
2023-04-15T03:52:14.764Z,7.9978
2023-04-15T03:53:16.412Z,7.9990
2023-04-15T03:54:18.078Z,7.9997
2023-04-15T03:55:19.720Z,8.0070
2023-04-15T03:56:21.344Z,8.0204
2023-04-15T03:57:23.007Z,8.0313
2023-04-15T03:58:24.648Z,8.0378
2023-04-15T03:59:26.271Z,8.0399
2023-04-15T04:00:27.955Z,8.0448
2023-04-15T04:01:29.570Z,8.0504
2023-04-15T04:02:31.335Z,8.0559
2023-04-15T04:03:32.951Z,8.0590
2023-04-15T04:04:34.558Z,8.0670
2023-04-15T04:05:36.152Z,8.0748
2023-04-15T04:06:37.803Z,8.0702
2023-04-15T04:07:39.473Z,8.0645
2023-04-15T04:08:41.111Z,8.0610
2023-04-15T04:09:42.734Z,8.0543
2023-04-15T04:10:44.394Z,8.0493
2023-04-15T04:11:46.031Z,8.0473
2023-04-15T04:12:47.782Z,8.0488
2023-04-15T04:13:49.347Z,8.0521
2023-04-15T04:14:50.947Z,8.0526
2023-04-15T04:15:52.657Z,8.0501
2023-04-15T04:16:54.319Z,8.0393
2023-04-15T04:17:55.993Z,8.0315
2023-04-15T04:18:57.583Z,8.0241
2023-04-15T04:19:59.324Z,8.0292
2023-04-15T04:21:00.947Z,8.0323
2023-04-15T04:22:02.705Z,8.0348
2023-04-15T04:23:04.313Z,8.0370
2023-04-15T04:24:05.830Z,8.0363
2023-04-15T04:25:07.440Z,8.0366
2023-04-15T04:26:09.142Z,8.0290
2023-04-15T04:27:10.797Z,8.0309
2023-04-15T04:28:12.416Z,8.0356
2023-04-15T04:29:14.051Z,8.0398
2023-04-15T04:30:15.715Z,8.0495
2023-04-15T04:31:17.420Z,8.0577
2023-04-15T04:32:19.069Z,8.0642
2023-04-15T04:33:20.656Z,8.0700
2023-04-15T04:34:22.312Z,8.0758
2023-04-15T04:35:23.956Z,8.0826
2023-04-15T04:36:25.579Z,8.0859
2023-04-15T04:37:27.313Z,8.0854
2023-04-15T04:38:28.880Z,8.0836
2023-04-15T04:39:30.570Z,8.0782
2023-04-15T04:40:32.166Z,8.0752
2023-04-15T04:41:33.838Z,8.0644
2023-04-15T04:42:36.803Z,8.0609
2023-04-15T04:43:37.128Z,8.0542
2023-04-15T04:44:38.779Z,8.0558
2023-04-15T04:45:40.464Z,8.0423
2023-04-15T04:46:42.085Z,8.0216
2023-04-15T04:47:43.836Z,8.0005
2023-04-15T04:49:00.000Z,7.9914
2023-04-15T04:49:47.062Z,7.9792
2023-04-15T04:50:48.665Z,7.9651
2023-04-15T04:51:50.368Z,7.9576
2023-04-15T04:52:52.024Z,7.9679
2023-04-15T04:53:53.655Z,7.9807
2023-04-15T04:54:55.278Z,7.9979
2023-04-15T04:55:56.928Z,8.0152
2023-04-15T04:56:58.588Z,8.0289
2023-04-15T04:58:00.268Z,8.0416
2023-04-15T04:59:02.130Z,8.0538
2023-04-15T05:00:03.608Z,8.0684
2023-04-15T05:01:05.316Z,8.0847
2023-04-15T05:02:06.930Z,8.0951
2023-04-15T05:03:08.763Z,8.1067
2023-04-15T05:04:10.396Z,8.1177
2023-04-15T05:05:11.882Z,8.1331
2023-04-15T05:06:13.525Z,8.1441
2023-04-15T05:07:15.160Z,8.1528
2023-04-15T05:08:16.856Z,8.1586
2023-04-15T05:09:18.548Z,8.1594
2023-04-15T05:10:20.145Z,8.1627
2023-04-15T05:11:21.874Z,8.1697
2023-04-15T05:12:23.435Z,8.1786
2023-04-15T05:13:25.145Z,8.1960
2023-04-15T05:14:26.752Z,8.2120
2023-04-15T05:15:28.539Z,8.2266
2023-04-15T05:16:29.912Z,8.2405
2023-04-15T05:17:31.779Z,8.2524
2023-04-15T05:18:33.419Z,8.2674
2023-04-15T05:19:35.003Z,8.2828
2023-04-15T05:20:36.623Z,8.3008
2023-04-15T05:21:39.512Z,8.3217
2023-04-15T05:22:39.954Z,8.3314
2023-04-15T05:23:41.624Z,8.3414
2023-04-15T05:24:43.294Z,8.3520
2023-04-15T05:25:44.907Z,8.3481
2023-04-15T05:26:46.589Z,8.3468
2023-04-15T05:27:48.132Z,8.3495
2023-04-15T05:28:49.729Z,8.3570
2023-04-15T05:29:51.407Z,8.3589
2023-04-15T05:30:53.069Z,8.3501
2023-04-15T05:31:54.660Z,8.3296
2023-04-15T05:32:56.329Z,8.3242
2023-04-15T05:33:58.003Z,8.3179
2023-04-15T05:34:59.628Z,8.3243
2023-04-15T05:36:01.219Z,8.3409
2023-04-15T05:37:02.918Z,8.3593
2023-04-15T05:38:04.564Z,8.3820
2023-04-15T05:39:06.332Z,8.4031
2023-04-15T05:40:07.953Z,8.4136
2023-04-15T05:41:09.638Z,8.4239
2023-04-15T05:42:11.249Z,8.4237
2023-04-15T05:43:12.864Z,8.4115
2023-04-15T05:44:14.605Z,8.4130
2023-04-15T05:45:16.192Z,8.4288
2023-04-15T05:46:18.002Z,8.4546
2023-04-15T05:47:19.576Z,8.4803
2023-04-15T05:48:21.167Z,8.5021
2023-04-15T05:49:22.840Z,8.5195
2023-04-15T05:50:24.431Z,8.5388
2023-04-15T05:51:26.085Z,8.5608
2023-04-15T05:52:27.704Z,8.5838
2023-04-15T05:53:29.358Z,8.6062
2023-04-15T05:54:31.056Z,8.6180
2023-04-15T05:55:32.673Z,8.6326
2023-04-15T05:56:34.311Z,8.6524
2023-04-15T05:57:36.029Z,8.6675
2023-04-15T05:58:37.712Z,8.6822
2023-04-15T05:59:39.352Z,8.6976
2023-04-15T06:00:41.009Z,8.7182
2023-04-15T06:01:42.590Z,8.7428
2023-04-15T06:02:44.420Z,8.7775
2023-04-15T06:03:46.110Z,8.8121
2023-04-15T06:04:47.643Z,8.8428
2023-04-15T06:05:49.212Z,8.8634
2023-04-15T06:06:50.868Z,8.8720
2023-04-15T06:07:52.443Z,8.8861
2023-04-15T06:08:54.116Z,8.9187
2023-04-15T06:09:55.801Z,8.9594
2023-04-15T06:10:57.402Z,8.9871
2023-04-15T06:11:59.060Z,9.0155
2023-04-15T06:13:00.700Z,9.0578
2023-04-15T06:14:02.387Z,9.1116
2023-04-15T06:15:04.034Z,9.1636
2023-04-15T06:16:05.701Z,9.2212
2023-04-15T06:17:07.315Z,9.2752
2023-04-15T06:18:08.936Z,9.3273
2023-04-15T06:19:10.642Z,9.3813
2023-04-15T06:20:12.273Z,9.4413
2023-04-15T06:21:13.914Z,9.4941
2023-04-15T06:22:15.559Z,9.5470
2023-04-15T06:23:17.247Z,9.6028
2023-04-15T06:24:18.856Z,9.6452
2023-04-15T06:25:20.533Z,9.6790
2023-04-15T06:26:22.179Z,9.7063
2023-04-15T06:27:23.805Z,9.7282
2023-04-15T06:28:25.460Z,9.7457
2023-04-15T06:29:27.152Z,9.7650
2023-04-15T06:30:28.772Z,9.7906
2023-04-15T06:31:30.508Z,9.8239
2023-04-15T06:32:32.120Z,9.8657
2023-04-15T06:33:33.704Z,9.9120
2023-04-15T06:34:35.406Z,9.9363
2023-04-15T06:35:37.025Z,9.9621
2023-04-15T06:36:38.660Z,9.9984
2023-04-15T06:37:40.357Z,10.0379
2023-04-15T06:38:41.969Z,10.0949
2023-04-15T06:39:43.683Z,10.1493
2023-04-15T06:40:45.301Z,10.2021
2023-04-15T06:41:46.929Z,10.2374
2023-04-15T06:42:48.613Z,10.2707
2023-04-15T06:43:50.254Z,10.3102
2023-04-15T06:44:51.942Z,10.3445
2023-04-15T06:45:53.538Z,10.3766
2023-04-15T06:46:55.193Z,10.3982
2023-04-15T06:47:56.896Z,10.4104
2023-04-15T06:48:59.596Z,10.4126
2023-04-15T06:50:00.295Z,10.4037
2023-04-15T06:51:01.892Z,10.4099
2023-04-15T06:52:03.534Z,10.4163
2023-04-15T06:53:05.198Z,10.4289
2023-04-15T06:54:06.836Z,10.4438
2023-04-15T06:55:08.550Z,10.4636
2023-04-15T06:56:10.197Z,10.4768
2023-04-15T06:57:11.795Z,10.4876
2023-04-15T06:58:13.472Z,10.4912
2023-04-15T06:59:15.129Z,10.4908
2023-04-15T07:00:16.801Z,10.5006
2023-04-15T07:01:18.494Z,10.4918
2023-04-15T07:02:20.175Z,10.4673
2023-04-15T07:03:21.700Z,10.4484
2023-04-15T07:04:23.397Z,10.4461
2023-04-15T07:05:25.091Z,10.4549
2023-04-15T07:06:26.700Z,10.4737
2023-04-15T07:07:28.369Z,10.5016
2023-04-15T07:08:29.958Z,10.5331
2023-04-15T07:09:31.581Z,10.5680
2023-04-15T07:10:33.390Z,10.6011
2023-04-15T07:11:34.920Z,10.6317
2023-04-15T07:12:36.563Z,10.6595
2023-04-15T07:13:38.181Z,10.6800
2023-04-15T07:14:39.812Z,10.7016
2023-04-15T07:15:41.505Z,10.7226
2023-04-15T07:16:43.187Z,10.7476
2023-04-15T07:17:44.787Z,10.7791
2023-04-15T07:18:46.371Z,10.8120
2023-04-15T07:19:48.035Z,10.8474
2023-04-15T07:20:49.746Z,10.8884
2023-04-15T07:21:51.350Z,10.9260
2023-04-15T07:22:52.954Z,10.9647
2023-04-15T07:23:54.774Z,11.0008
2023-04-15T07:24:56.268Z,11.0355
2023-04-15T07:25:57.950Z,11.0636
2023-04-15T07:27:01.014Z,11.0833
2023-04-15T07:28:01.309Z,11.0989
2023-04-15T07:29:03.183Z,11.1224
2023-04-15T07:30:04.551Z,11.1401
2023-04-15T07:31:06.282Z,11.1550
2023-04-15T07:32:07.975Z,11.1727
2023-04-15T07:33:09.501Z,11.1903
2023-04-15T07:34:11.172Z,11.2190
2023-04-15T07:35:12.823Z,11.2538
2023-04-15T07:36:14.506Z,11.2694
2023-04-15T07:37:16.102Z,11.2691
2023-04-15T07:38:17.742Z,11.2684
2023-04-15T07:39:19.444Z,11.2761
2023-04-15T07:40:21.052Z,11.2901
2023-04-15T07:41:22.764Z,11.2905
2023-04-15T07:42:24.338Z,11.2937
2023-04-15T07:43:26.058Z,11.2921
2023-04-15T07:44:27.716Z,11.3004
2023-04-15T07:45:29.279Z,11.2997
2023-04-15T07:46:30.997Z,11.2973
2023-04-15T07:47:32.660Z,11.3048
2023-04-15T07:48:35.613Z,11.3141
2023-04-15T07:49:35.856Z,11.3092
2023-04-15T07:50:37.429Z,11.2975
2023-04-15T07:51:39.047Z,11.2589
2023-04-15T07:52:40.693Z,11.2272
2023-04-15T07:53:42.327Z,11.2089
2023-04-15T07:54:44.005Z,11.1935
2023-04-15T07:55:45.657Z,11.1737
2023-04-15T07:56:47.366Z,11.1701
2023-04-15T07:57:48.943Z,11.1653
2023-04-15T07:58:50.604Z,11.1503
2023-04-15T07:59:52.242Z,11.1403
2023-04-15T08:00:53.872Z,11.1237
2023-04-15T08:01:55.593Z,11.1128
2023-04-15T08:02:57.321Z,11.0931
2023-04-15T08:03:58.889Z,11.0547
2023-04-15T08:05:00.493Z,11.0060
2023-04-15T08:06:02.095Z,10.9669
2023-04-15T08:07:03.752Z,10.9252
2023-04-15T08:08:05.386Z,10.8990
2023-04-15T08:09:07.252Z,10.8762
2023-04-15T08:10:08.678Z,10.8645
2023-04-15T08:11:10.539Z,10.8768
2023-04-15T08:12:12.002Z,10.8794
2023-04-15T08:13:13.605Z,10.8883
2023-04-15T08:14:15.237Z,10.9017
2023-04-15T08:15:16.896Z,10.9155
2023-04-15T08:16:18.631Z,10.9288
2023-04-15T08:17:20.235Z,10.9468
2023-04-15T08:18:21.934Z,10.9628
2023-04-15T08:19:23.477Z,10.9735
2023-04-15T08:20:25.137Z,10.9884
2023-04-15T08:21:26.755Z,11.0005
2023-04-15T08:22:28.482Z,11.0236
2023-04-15T08:23:30.061Z,11.0597
2023-04-15T08:24:31.709Z,11.0886
2023-04-15T08:25:33.430Z,11.1136
2023-04-15T08:26:35.050Z,11.1494
2023-04-15T08:27:36.756Z,11.1885
2023-04-15T08:28:38.345Z,11.2253
2023-04-15T08:29:39.993Z,11.2480
2023-04-15T08:30:41.646Z,11.2756
2023-04-15T08:31:43.354Z,11.3203
2023-04-15T08:32:45.049Z,11.3660
2023-04-15T08:33:46.594Z,11.4111
2023-04-15T08:34:48.257Z,11.4607
2023-04-15T08:35:49.862Z,11.5039
2023-04-15T08:36:51.590Z,11.5302
2023-04-15T08:37:53.220Z,11.5405
2023-04-15T08:38:54.854Z,11.5587
2023-04-15T08:39:56.480Z,11.5765
2023-04-15T08:40:58.093Z,11.5868
2023-04-15T08:41:59.721Z,11.5932
2023-04-15T08:43:01.401Z,11.6125
2023-04-15T08:44:03.067Z,11.6341
2023-04-15T08:45:04.685Z,11.6525
2023-04-15T08:46:06.230Z,11.6659
2023-04-15T08:47:07.983Z,11.6722
2023-04-15T08:48:09.574Z,11.6823
2023-04-15T08:49:11.162Z,11.6926
2023-04-15T08:50:12.817Z,11.6939
2023-04-15T08:51:14.483Z,11.6980
2023-04-15T08:52:16.129Z,11.7037
2023-04-15T08:53:17.741Z,11.6961
2023-04-15T08:54:19.413Z,11.6890
2023-04-15T08:55:21.025Z,11.6832
2023-04-15T08:56:22.698Z,11.6887
2023-04-15T08:57:24.321Z,11.7029
2023-04-15T08:58:25.987Z,11.7256
2023-04-15T08:59:27.587Z,11.7562
2023-04-15T09:00:29.244Z,11.7855
2023-04-15T09:01:30.935Z,11.7888
2023-04-15T09:02:32.620Z,11.7732
2023-04-15T09:03:34.356Z,11.7373
2023-04-15T09:04:35.796Z,11.7223
2023-04-15T09:05:37.485Z,11.7171
2023-04-15T09:06:39.074Z,11.7116
2023-04-15T09:07:40.718Z,11.7115
2023-04-15T09:08:42.399Z,11.7084
2023-04-15T09:09:44.005Z,11.7087
2023-04-15T09:10:45.657Z,11.7112
2023-04-15T09:11:47.298Z,11.7108
2023-04-15T09:12:48.940Z,11.6784
2023-04-15T09:13:50.641Z,11.6326
2023-04-15T09:14:52.256Z,11.6167
2023-04-15T09:15:53.885Z,11.6158
2023-04-15T09:16:55.560Z,11.6256
2023-04-15T09:17:57.219Z,11.6337
2023-04-15T09:18:58.821Z,11.6480
2023-04-15T09:20:00.437Z,11.6678
2023-04-15T09:21:02.101Z,11.6799
2023-04-15T09:22:03.795Z,11.6953
2023-04-15T09:23:05.456Z,11.7173
2023-04-15T09:24:07.174Z,11.7391
2023-04-15T09:25:08.911Z,11.7452
2023-04-15T09:26:10.424Z,11.7448
2023-04-15T09:27:12.082Z,11.7592
2023-04-15T09:28:13.737Z,11.7756
2023-04-15T09:29:15.341Z,11.7890
2023-04-15T09:30:17.049Z,11.8076
2023-04-15T09:31:18.698Z,11.8393
2023-04-15T09:32:20.274Z,11.8685
2023-04-15T09:33:21.899Z,11.8788
2023-04-15T09:34:23.490Z,11.8747
2023-04-15T09:35:25.095Z,11.8813
2023-04-15T09:36:26.753Z,11.8689
2023-04-15T09:37:32.461Z,11.8524
2023-04-15T09:38:30.082Z,11.8542
2023-04-15T09:39:31.701Z,11.8791
2023-04-15T09:40:33.374Z,11.9103
2023-04-15T09:41:34.972Z,11.9421
2023-04-15T09:42:36.643Z,11.9296
2023-04-15T09:43:38.283Z,11.8647
2023-04-15T09:44:39.893Z,11.7879
2023-04-15T09:45:41.576Z,11.7330
2023-04-15T09:46:43.215Z,11.6828
2023-04-15T09:47:44.843Z,11.6393
2023-04-15T09:48:46.719Z,11.6049
2023-04-15T09:49:48.244Z,11.5961
2023-04-15T09:50:49.735Z,11.6116
2023-04-15T09:52:04.124Z,11.6293
2023-04-15T09:52:53.043Z,11.6469
2023-04-15T09:53:54.685Z,11.6827
2023-04-15T09:54:56.327Z,11.7243
2023-04-15T09:55:57.934Z,11.7680
2023-04-15T09:56:59.588Z,11.8117
2023-04-15T09:58:01.200Z,11.8328
2023-04-15T09:59:02.882Z,11.8157
2023-04-15T10:00:04.496Z,11.7860
2023-04-15T10:01:06.193Z,11.7804
2023-04-15T10:02:07.978Z,11.7909
2023-04-15T10:03:09.553Z,11.8122
2023-04-15T10:04:11.266Z,11.8523
2023-04-15T10:05:12.738Z,11.8962
2023-04-15T10:06:14.365Z,11.9077
2023-04-15T10:07:16.019Z,11.9154
2023-04-15T10:08:17.638Z,11.9042
2023-04-15T10:09:19.405Z,11.8987
2023-04-15T10:10:21.017Z,11.9129
2023-04-15T10:11:22.653Z,11.9215
2023-04-15T10:12:24.343Z,11.9325
2023-04-15T10:13:25.960Z,11.9121
2023-04-15T10:14:27.666Z,11.8767
2023-04-15T10:15:29.362Z,11.8340
2023-04-15T10:16:30.930Z,11.8104
2023-04-15T10:17:32.651Z,11.8114
2023-04-15T10:18:34.195Z,11.8352
2023-04-15T10:19:35.874Z,11.8666
2023-04-15T10:20:37.475Z,11.9018
2023-04-15T10:21:39.151Z,11.9384
2023-04-15T10:22:40.781Z,11.9494
2023-04-15T10:23:42.414Z,11.9520
2023-04-15T10:24:44.133Z,11.9638
2023-04-15T10:25:45.707Z,11.9827
2023-04-15T10:26:47.389Z,11.9933
2023-04-15T10:27:48.967Z,11.9881
2023-04-15T10:28:50.672Z,11.9715
2023-04-15T10:29:52.230Z,11.9549
2023-04-15T10:30:53.901Z,11.9491
2023-04-15T10:31:55.421Z,11.9499
2023-04-15T10:32:57.100Z,11.9594
2023-04-15T10:33:58.753Z,11.9738
2023-04-15T10:35:00.374Z,12.0084
2023-04-15T10:36:02.040Z,12.0305
2023-04-15T10:37:03.765Z,12.0257
2023-04-15T10:38:05.267Z,12.0350
2023-04-15T10:39:06.898Z,12.0696
2023-04-15T10:40:08.597Z,12.1165
2023-04-15T10:41:10.198Z,12.1718
2023-04-15T10:42:11.837Z,12.2177
2023-04-15T10:43:13.478Z,12.2515
2023-04-15T10:44:15.138Z,12.2842
2023-04-15T10:45:16.800Z,12.3210
2023-04-15T10:46:18.449Z,12.3426
2023-04-15T10:47:20.050Z,12.3723
2023-04-15T10:48:21.708Z,12.4090
2023-04-15T10:49:23.359Z,12.4472
2023-04-15T10:50:25.013Z,12.5057
2023-04-15T10:51:26.664Z,12.5494
2023-04-15T10:52:28.291Z,12.5808
2023-04-15T10:53:29.926Z,12.6001
2023-04-15T10:54:31.585Z,12.6231
2023-04-15T10:55:33.269Z,12.6540
2023-04-15T10:56:34.860Z,12.6875
2023-04-15T10:57:36.491Z,12.7268
2023-04-15T10:58:38.135Z,12.7665
2023-04-15T10:59:39.768Z,12.7852
2023-04-15T11:00:41.435Z,12.7793
2023-04-15T11:01:43.072Z,12.7739
2023-04-15T11:02:44.933Z,12.7611
2023-04-15T11:03:46.490Z,12.7475
2023-04-15T11:04:48.133Z,12.7494
2023-04-15T11:05:49.841Z,12.7590
2023-04-15T11:06:51.354Z,12.7811
2023-04-15T11:07:53.020Z,12.8106
2023-04-15T11:08:54.609Z,12.8382
2023-04-15T11:09:56.249Z,12.8604
2023-04-15T11:10:57.932Z,12.8860
2023-04-15T11:11:59.564Z,12.9024
2023-04-15T11:13:01.195Z,12.8869
2023-04-15T11:14:03.039Z,12.8399
2023-04-15T11:15:04.468Z,12.8099
2023-04-15T11:16:06.187Z,12.8067
2023-04-15T11:17:07.768Z,12.8214
2023-04-15T11:18:09.413Z,12.8421
2023-04-15T11:19:10.913Z,12.8608
2023-04-15T11:20:12.650Z,12.8774
2023-04-15T11:21:14.270Z,12.8789
2023-04-15T11:22:15.884Z,12.8787
2023-04-15T11:23:17.523Z,12.8669
2023-04-15T11:24:19.164Z,12.8427
2023-04-15T11:25:20.788Z,12.8132
2023-04-15T11:26:22.446Z,12.7830
2023-04-15T11:27:24.083Z,12.7554
2023-04-15T11:28:25.727Z,12.7200
2023-04-15T11:29:27.420Z,12.6916
2023-04-15T11:30:29.089Z,12.6773
2023-04-15T11:31:30.743Z,12.6634
2023-04-15T11:32:32.399Z,12.6375
2023-04-15T11:33:33.972Z,12.6076
2023-04-15T11:34:36.225Z,12.5742
2023-04-15T11:35:37.286Z,12.5575
2023-04-15T11:36:38.944Z,12.5697
2023-04-15T11:37:40.542Z,12.5769
2023-04-15T11:38:42.186Z,12.5705
2023-04-15T11:39:43.812Z,12.5720
2023-04-15T11:40:47.184Z,12.5836
2023-04-15T11:41:47.146Z,12.6016
2023-04-15T11:42:49.859Z,12.6055
2023-04-15T11:43:50.391Z,12.6113
2023-04-15T11:44:52.046Z,12.6124
2023-04-15T11:45:53.824Z,12.6163
2023-04-15T11:46:55.347Z,12.6161
2023-04-15T11:47:57.009Z,12.6268
2023-04-15T11:48:58.644Z,12.6464
2023-04-15T11:50:00.248Z,12.6538
2023-04-15T11:51:01.933Z,12.6553
2023-04-15T11:52:03.562Z,12.6598
2023-04-15T11:53:08.163Z,12.6739
2023-04-15T11:54:07.116Z,12.6927
2023-04-15T11:55:08.680Z,12.7122
2023-04-15T11:56:10.215Z,12.7066
2023-04-15T11:57:11.887Z,12.6753
2023-04-15T11:58:15.108Z,12.6272
2023-04-15T11:59:15.114Z,12.5893
2023-04-15T12:00:16.763Z,12.5602
2023-04-15T12:01:18.393Z,12.5617
2023-04-15T12:02:20.190Z,12.5979
2023-04-15T12:03:21.845Z,12.6568
2023-04-15T12:04:25.626Z,12.7279
2023-04-15T12:05:25.096Z,12.7880
2023-04-15T12:06:26.594Z,12.8547
2023-04-15T12:07:28.367Z,12.9307
2023-04-15T12:08:29.986Z,13.0142
2023-04-15T12:09:32.478Z,13.0982
2023-04-15T12:10:33.195Z,13.1786
2023-04-15T12:11:34.831Z,13.2473
2023-04-15T12:12:36.514Z,13.3239
2023-04-15T12:13:38.044Z,13.3904
2023-04-15T12:14:39.704Z,13.4669
2023-04-15T12:15:41.354Z,13.5387
2023-04-15T12:16:48.377Z,13.6058
2023-04-15T12:17:51.300Z,13.6703
2023-04-15T12:18:46.226Z,13.7229
2023-04-15T12:19:47.894Z,13.7492
2023-04-15T12:20:49.522Z,13.7281
2023-04-15T12:21:51.191Z,13.6859
2023-04-15T12:22:52.826Z,13.6603
2023-04-15T12:23:54.435Z,13.6506
2023-04-15T12:24:56.085Z,13.6377
2023-04-15T12:25:57.722Z,13.6206
2023-04-15T12:26:59.362Z,13.5929
2023-04-15T12:28:01.037Z,13.5574
2023-04-15T12:29:02.679Z,13.5268
2023-04-15T12:30:04.501Z,13.5213
2023-04-15T12:31:05.992Z,13.5302
2023-04-15T12:32:07.584Z,13.5310
2023-04-15T12:33:09.304Z,13.5467
2023-04-15T12:34:10.845Z,13.5589
2023-04-15T12:35:12.499Z,13.5653
2023-04-15T12:36:14.167Z,13.5829
2023-04-15T12:37:15.783Z,13.6087